Quenames — WTU9038 — position and weather

sailwx.info

Track history (hours):
 
Tides and Currents Weather Stations Pressure Air Temp Water Temp Dewpoint Dewpoint Depression Visibility Wind Speed Wind Dir Waves Ship Positions

Quenames

Owner: BOSTON MARINE TRANSPORT INC, Pelham, NH. More information available from US FCC via Universal Licensing System and Coast Guard Vessel Documentation Center.

Last reported at 2018-Jan-20 21:00 UTC. Time now 2018-Jan-20 21:18 UTC.
Position N 40°37' W 074°12'.

Length 23 m; draft 3 m.

Type: Tug. MMSI: 367022790.

Date/timePositionNaut miles runAvg speedWind from/ knotsBaromVisibWave heightAir tempDewpointWater temp
2018-Jan-20 21:00N 40°37' W 074°12'2 5.0
2018-Jan-20 20:30N 40°34' W 074°13'3 4.6
2018-Jan-20 19:57N 40°33' W 074°15'1 0.0
2018-Jan-20 02:28N 40°32' W 074°15'3 5.6
2018-Jan-20 01:58N 40°34' W 074°13'3 7.5
2018-Jan-20 01:30N 40°38' W 074°12'2 4.9
2018-Jan-20 01:00N 40°39' W 074°09'4 7.2
2018-Jan-20 00:30N 40°39' W 074°04'4 7.8
2018-Jan-20 00:00N 40°41' W 074°01'3 5.7
2018-Jan-19 23:30N 40°44' W 073°58'3 6.5
2018-Jan-19 22:59N 40°47' W 073°56'3 5.3
2018-Jan-19 22:28N 40°48' W 073°53'4 8.0
2018-Jan-19 21:59N 40°48' W 073°48'6 0.2
2018-Jan-18 14:17N 40°53' W 073°43'2 6.4
2018-Jan-18 14:00N 40°52' W 073°45'3 6.7
2018-Jan-18 13:30N 40°49' W 073°47'3 6.3
2018-Jan-18 12:59N 40°48' W 073°51'5 8.4
2018-Jan-18 12:20N 40°46' W 073°57'3 8.6
2018-Jan-18 12:00N 40°43' W 073°58'4 7.9
2018-Jan-18 11:30N 40°40' W 074°02'3 5.8
2018-Jan-18 11:01N 40°39' W 074°06'2 4.6
2018-Jan-18 10:30N 40°38' W 074°09'8 0.7
2018-Jan-18 00:18N 40°33' W 074°15'2 2.6
2018-Jan-17 23:30N 40°34' W 074°13'  
2018-Jan-11 17:31N 40°45' W 073°57'0 7.3
2018-Jan-11 17:30N 40°45' W 073°58'3 6.3
2018-Jan-11 17:00N 40°42' W 073°59'3 5.8
2018-Jan-11 16:30N 40°40' W 074°01'3 5.2
2018-Jan-11 16:01N 40°39' W 074°04'1 0.5
2018-Jan-11 15:04N 40°39' W 074°05'0 0.1
2018-Jan-11 15:00N 40°39' W 074°05'0 0.0
2018-Jan-11 14:28N 40°39' W 074°05'0 0.0
2018-Jan-11 13:57N 40°39' W 074°05'0 0.0
2018-Jan-11 13:30N 40°39' W 074°05'0 0.0
2018-Jan-11 13:01N 40°39' W 074°05'0 0.0
2018-Jan-11 12:30N 40°39' W 074°05'0 0.0
2018-Jan-11 12:00N 40°39' W 074°05'0 0.0
2018-Jan-11 11:30N 40°39' W 074°05'0 0.0
2018-Jan-11 10:58N 40°39' W 074°05'0 0.0
2018-Jan-11 10:30N 40°39' W 074°05'0 0.0
2018-Jan-11 10:00N 40°39' W 074°05'0 0.0
2018-Jan-11 09:29N 40°39' W 074°05'0 0.0
2018-Jan-11 08:59N 40°39' W 074°05'0 0.0
2018-Jan-11 08:30N 40°39' W 074°05'0 0.0
2018-Jan-11 08:00N 40°39' W 074°05'0 0.0
2018-Jan-11 07:27N 40°39' W 074°05'0 0.0
2018-Jan-11 06:35N 40°39' W 074°05'0 0.1
2018-Jan-11 06:30N 40°39' W 074°05'0 0.0
2018-Jan-11 06:00N 40°39' W 074°05'0 0.0
2018-Jan-11 05:19N 40°39' W 074°05'0 0.0
2018-Jan-11 04:56N 40°39' W 074°05'0 0.0
2018-Jan-11 04:29N 40°39' W 074°05'0 0.0
2018-Jan-11 03:59N 40°39' W 074°05'0 0.0
2018-Jan-11 03:24N 40°39' W 074°05'0 0.0
2018-Jan-11 02:56N 40°39' W 074°05'1 1.5
2018-Jan-11 02:31N 40°39' W 074°04'1 2.9
2018-Jan-11 02:01N 40°39' W 074°02'0 0.0
2018-Jan-11 01:30N 40°39' W 074°02'0 0.1
2018-Jan-11 01:01N 40°39' W 074°02'0 0.0
2018-Jan-11 00:31N 40°39' W 074°02'0 0.0
2018-Jan-11 00:01N 40°39' W 074°02'0 0.0
2018-Jan-10 23:31N 40°39' W 074°02'0 0.1
2018-Jan-10 23:01N 40°40' W 074°02'0 0.1
2018-Jan-10 22:31N 40°40' W 074°02'0 0.0
2018-Jan-10 22:01N 40°40' W 074°02'0 0.0
2018-Jan-10 21:31N 40°40' W 074°02'0 0.0
2018-Jan-10 21:00N 40°40' W 074°02'  
Track history (hours):
 
Tides and Currents Weather Stations Pressure Air Temp Water Temp Dewpoint Dewpoint Depression Visibility Wind Speed Wind Dir Waves Ship Positions

Quenames

Owner: BOSTON MARINE TRANSPORT INC, Pelham, NH. More information available from US FCC via Universal Licensing System and Coast Guard Vessel Documentation Center.

Last reported at 2018-Jan-20 21:00 UTC. Time now 2018-Jan-20 21:18 UTC.
Position N 40°37' W 074°12'.

Length 23 m; draft 3 m.

Type: Tug. MMSI: 367022790.

Date/timePositionNaut miles runAvg speedWind from/ knotsBaromVisibWave heightAir tempDewpointWater temp
2018-Jan-20 21:00N 40°37' W 074°12'2 5.0
2018-Jan-20 20:30N 40°34' W 074°13'3 4.6
2018-Jan-20 19:57N 40°33' W 074°15'1 0.0
2018-Jan-20 02:28N 40°32' W 074°15'3 5.6
2018-Jan-20 01:58N 40°34' W 074°13'3 7.5
2018-Jan-20 01:30N 40°38' W 074°12'2 4.9
2018-Jan-20 01:00N 40°39' W 074°09'4 7.2
2018-Jan-20 00:30N 40°39' W 074°04'4 7.8
2018-Jan-20 00:00N 40°41' W 074°01'3 5.7
2018-Jan-19 23:30N 40°44' W 073°58'3 6.5
2018-Jan-19 22:59N 40°47' W 073°56'3 5.3
2018-Jan-19 22:28N 40°48' W 073°53'4 8.0
2018-Jan-19 21:59N 40°48' W 073°48'6 0.2
2018-Jan-18 14:17N 40°53' W 073°43'2 6.4
2018-Jan-18 14:00N 40°52' W 073°45'3 6.7
2018-Jan-18 13:30N 40°49' W 073°47'3 6.3
2018-Jan-18 12:59N 40°48' W 073°51'5 8.4
2018-Jan-18 12:20N 40°46' W 073°57'3 8.6
2018-Jan-18 12:00N 40°43' W 073°58'4 7.9
2018-Jan-18 11:30N 40°40' W 074°02'3 5.8
2018-Jan-18 11:01N 40°39' W 074°06'2 4.6
2018-Jan-18 10:30N 40°38' W 074°09'8 0.7
2018-Jan-18 00:18N 40°33' W 074°15'2 2.6
2018-Jan-17 23:30N 40°34' W 074°13'  
2018-Jan-11 17:31N 40°45' W 073°57'0 7.3
2018-Jan-11 17:30N 40°45' W 073°58'3 6.3
2018-Jan-11 17:00N 40°42' W 073°59'3 5.8
2018-Jan-11 16:30N 40°40' W 074°01'3 5.2
2018-Jan-11 16:01N 40°39' W 074°04'1 0.5
2018-Jan-11 15:04N 40°39' W 074°05'0 0.1
2018-Jan-11 15:00N 40°39' W 074°05'0 0.0
2018-Jan-11 14:28N 40°39' W 074°05'0 0.0
2018-Jan-11 13:57N 40°39' W 074°05'0 0.0
2018-Jan-11 13:30N 40°39' W 074°05'0 0.0
2018-Jan-11 13:01N 40°39' W 074°05'0 0.0
2018-Jan-11 12:30N 40°39' W 074°05'0 0.0
2018-Jan-11 12:00N 40°39' W 074°05'0 0.0
2018-Jan-11 11:30N 40°39' W 074°05'0 0.0
2018-Jan-11 10:58N 40°39' W 074°05'0 0.0
2018-Jan-11 10:30N 40°39' W 074°05'0 0.0
2018-Jan-11 10:00N 40°39' W 074°05'0 0.0
2018-Jan-11 09:29N 40°39' W 074°05'0 0.0
2018-Jan-11 08:59N 40°39' W 074°05'0 0.0
2018-Jan-11 08:30N 40°39' W 074°05'0 0.0
2018-Jan-11 08:00N 40°39' W 074°05'0 0.0
2018-Jan-11 07:27N 40°39' W 074°05'0 0.0
2018-Jan-11 06:35N 40°39' W 074°05'0 0.1
2018-Jan-11 06:30N 40°39' W 074°05'0 0.0
2018-Jan-11 06:00N 40°39' W 074°05'0 0.0
2018-Jan-11 05:19N 40°39' W 074°05'0 0.0
2018-Jan-11 04:56N 40°39' W 074°05'0 0.0
2018-Jan-11 04:29N 40°39' W 074°05'0 0.0
2018-Jan-11 03:59N 40°39' W 074°05'0 0.0
2018-Jan-11 03:24N 40°39' W 074°05'0 0.0
2018-Jan-11 02:56N 40°39' W 074°05'1 1.5
2018-Jan-11 02:31N 40°39' W 074°04'1 2.9
2018-Jan-11 02:01N 40°39' W 074°02'0 0.0
2018-Jan-11 01:30N 40°39' W 074°02'0 0.1
2018-Jan-11 01:01N 40°39' W 074°02'0 0.0
2018-Jan-11 00:31N 40°39' W 074°02'0 0.0
2018-Jan-11 00:01N 40°39' W 074°02'0 0.0
2018-Jan-10 23:31N 40°39' W 074°02'0 0.1
2018-Jan-10 23:01N 40°40' W 074°02'0 0.1
2018-Jan-10 22:31N 40°40' W 074°02'0 0.0
2018-Jan-10 22:01N 40°40' W 074°02'0 0.0
2018-Jan-10 21:31N 40°40' W 074°02'0 0.0
2018-Jan-10 21:00N 40°40' W 074°02'  

Dump ship's entire track history